Time;durP1;ratioP1;P1;durP2;ratioP2;P2;SDS_P1;SDS_P2;PMS_P1;PMS_P2;Temp;Humidity;BMP_temperature;BMP_pressure;BME280_temperature;BME280_humidity;BME280_pressure;Samples;Min_cycle;Max_cycle;Signal;HPM_P1;HPM_P2
2023/03/11 00:00:33;;;;;;;18.13;10.23;;;;;;;;;;2080871;28;20085;-79
2023/03/11 00:01:52;;;;;;;14.20;10.00;;;;;;;;;;2078195;28;20029;-79
2023/03/11 00:03:12;;;;;;;17.23;10.35;;;;;;;;;;2080167;28;20025;-79
2023/03/11 00:04:31;;;;;;;20.02;10.73;;;;;;;;;;2079950;28;20029;-79
2023/03/11 00:05:51;;;;;;;17.15;10.52;;;;;;;;;;2080074;28;20049;-79
2023/03/11 00:07:10;;;;;;;18.67;9.98;;;;;;;;;;2071119;28;20035;-79
2023/03/11 00:08:29;;;;;;;13.18;9.48;;;;;;;;;;2067131;28;20031;-79
2023/03/11 00:09:48;;;;;;;14.10;9.57;;;;;;;;;;2074351;28;20403;-79
2023/03/11 00:11:07;;;;;;;13.68;9.45;;;;;;;;;;2081894;28;20041;-79
2023/03/11 00:12:26;;;;;;;15.20;10.05;;;;;;;;;;2071412;28;20018;-79
2023/03/11 00:13:45;;;;;;;15.07;9.60;;;;;;;;;;2075298;28;20108;-79
2023/03/11 00:15:04;;;;;;;13.02;9.05;;;;;;;;;;2072696;28;20547;-79
2023/03/11 00:16:23;;;;;;;15.48;8.95;;;;;;;;;;2076433;28;20081;-79
2023/03/11 00:17:43;;;;;;;12.02;8.48;;;;;;;;;;2080847;28;20077;-79
2023/03/11 00:19:02;;;;;;;13.05;8.68;;;;;;;;;;2073817;28;20076;-79
2023/03/11 00:20:25;;;;;;;14.85;8.95;;;;;;;;;;2074856;28;20507;-79
2023/03/11 00:21:44;;;;;;;14.70;9.50;;;;;;;;;;2078339;28;20600;-78
2023/03/11 00:23:04;;;;;;;12.60;8.52;;;;;;;;;;2079544;28;20030;-79
2023/03/11 00:24:24;;;;;;;14.32;9.07;;;;;;;;;;2071462;28;20029;-79
2023/03/11 00:25:44;;;;;;;12.23;8.63;;;;;;;;;;2075281;28;20033;-80
2023/03/11 00:27:03;;;;;;;14.45;8.48;;;;;;;;;;2079502;28;20022;-79
2023/03/11 00:28:24;;;;;;;14.65;8.77;;;;;;;;;;2071560;28;20524;-79
2023/03/11 00:29:43;;;;;;;13.05;8.70;;;;;;;;;;2070391;28;20523;-79
2023/03/11 00:31:03;;;;;;;13.68;8.18;;;;;;;;;;2078957;28;20498;-79
2023/03/11 00:32:22;;;;;;;13.93;8.30;;;;;;;;;;2075769;28;20414;-79
2023/03/11 00:33:40;;;;;;;14.40;8.18;;;;;;;;;;2072958;28;20034;-78
2023/03/11 00:34:59;;;;;;;14.38;8.50;;;;;;;;;;2076427;28;20029;-79
2023/03/11 00:36:23;;;;;;;11.68;8.40;;;;;;;;;;2073542;28;20459;-78
2023/03/11 00:37:43;;;;;;;10.10;7.40;;;;;;;;;;2071063;28;20022;-79
2023/03/11 00:39:05;;;;;;;10.45;8.02;;;;;;;;;;2072812;28;20034;-79
2023/03/11 00:40:25;;;;;;;9.93;8.05;;;;;;;;;;2073572;28;20021;-79
2023/03/11 00:41:45;;;;;;;11.60;7.80;;;;;;;;;;2072039;28;20515;-79
2023/03/11 00:43:03;;;;;;;9.65;7.20;;;;;;;;;;2071775;28;20034;-79
2023/03/11 00:44:22;;;;;;;11.75;7.53;;;;;;;;;;2072911;28;20034;-79
2023/03/11 00:45:41;;;;;;;13.63;8.10;;;;;;;;;;2070473;28;20045;-79
2023/03/11 00:47:00;;;;;;;12.10;7.05;;;;;;;;;;2078267;28;20041;-79
2023/03/11 00:48:19;;;;;;;12.07;7.82;;;;;;;;;;2073433;28;20487;-79
2023/03/11 00:49:37;;;;;;;10.48;7.32;;;;;;;;;;2073153;28;20065;-78
2023/03/11 00:50:57;;;;;;;10.27;7.45;;;;;;;;;;2072647;28;20026;-79
2023/03/11 00:52:16;;;;;;;13.23;7.85;;;;;;;;;;2072884;28;20025;-79
2023/03/11 00:53:35;;;;;;;7.65;6.65;;;;;;;;;;2072832;28;20029;-79
2023/03/11 00:54:54;;;;;;;10.88;7.45;;;;;;;;;;2072956;28;20399;-79
2023/03/11 00:56:14;;;;;;;8.25;6.50;;;;;;;;;;2070401;28;20030;-79
2023/03/11 00:57:32;;;;;;;10.48;7.22;;;;;;;;;;2074241;28;20033;-79
2023/03/11 00:58:51;;;;;;;9.68;7.22;;;;;;;;;;2072477;28;20018;-79
2023/03/11 01:00:14;;;;;;;9.80;7.20;;;;;;;;;;2073592;28;20030;-79
2023/03/11 01:01:33;;;;;;;10.55;7.10;;;;;;;;;;2073622;28;20029;-79
2023/03/11 01:02:52;;;;;;;11.93;7.00;;;;;;;;;;2074205;28;20034;-79
2023/03/11 01:04:11;;;;;;;9.70;7.13;;;;;;;;;;2070682;28;20048;-79
2023/03/11 01:05:31;;;;;;;11.40;7.72;;;;;;;;;;2073706;28;20029;-79
2023/03/11 01:06:51;;;;;;;11.00;7.20;;;;;;;;;;2071129;28;20061;-79
2023/03/11 01:08:10;;;;;;;9.98;6.85;;;;;;;;;;2072343;28;20025;-79
2023/03/11 01:09:29;;;;;;;13.38;6.82;;;;;;;;;;2071640;28;20030;-79
2023/03/11 01:10:48;;;;;;;9.30;7.03;;;;;;;;;;2082760;28;20101;-79
2023/03/11 01:12:06;;;;;;;8.27;6.47;;;;;;;;;;2071362;28;20037;-79
2023/03/11 01:13:26;;;;;;;13.02;6.60;;;;;;;;;;2069354;28;20104;-79
2023/03/11 01:14:45;;;;;;;9.45;6.00;;;;;;;;;;2072508;28;20550;-79
2023/03/11 01:16:06;;;;;;;11.48;6.97;;;;;;;;;;2071428;28;20033;-78
2023/03/11 01:17:25;;;;;;;8.40;6.32;;;;;;;;;;2072128;28;20026;-78
2023/03/11 01:18:44;;;;;;;9.02;6.55;;;;;;;;;;2072350;28;20041;-79
2023/03/11 01:20:05;;;;;;;10.50;6.57;;;;;;;;;;2068882;28;20619;-78
2023/03/11 01:21:24;;;;;;;10.63;6.53;;;;;;;;;;2070851;28;20398;-78
2023/03/11 01:22:43;;;;;;;9.35;6.63;;;;;;;;;;2077993;28;20030;-78
2023/03/11 01:24:02;;;;;;;7.93;5.63;;;;;;;;;;2075239;28;20030;-78
2023/03/11 01:25:21;;;;;;;8.15;6.30;;;;;;;;;;2070658;28;20117;-78
2023/03/11 01:26:40;;;;;;;6.57;5.78;;;;;;;;;;2070981;28;20034;-78
2023/03/11 01:27:59;;;;;;;9.18;5.97;;;;;;;;;;2070554;28;20034;-78
2023/03/11 01:29:18;;;;;;;9.60;5.65;;;;;;;;;;2071289;28;20025;-78
2023/03/11 01:30:39;;;;;;;10.73;6.53;;;;;;;;;;2070619;28;20057;-78
2023/03/11 01:31:58;;;;;;;9.57;6.18;;;;;;;;;;2075528;28;20045;-79
2023/03/11 01:33:18;;;;;;;8.15;5.78;;;;;;;;;;2081374;28;20068;-78
2023/03/11 01:34:37;;;;;;;9.48;6.13;;;;;;;;;;2078461;28;20105;-78
2023/03/11 01:35:56;;;;;;;7.18;5.57;;;;;;;;;;2078944;28;20513;-78
2023/03/11 01:37:15;;;;;;;6.88;5.90;;;;;;;;;;2081013;28;20037;-79
2023/03/11 01:38:34;;;;;;;7.90;6.20;;;;;;;;;;2082295;28;20033;-79
2023/03/11 01:39:53;;;;;;;6.93;6.20;;;;;;;;;;2079437;28;20026;-79
2023/03/11 01:41:12;;;;;;;8.60;6.20;;;;;;;;;;2074975;28;20022;-78
2023/03/11 01:42:31;;;;;;;10.20;6.50;;;;;;;;;;2075075;28;20033;-79
2023/03/11 01:43:53;;;;;;;8.43;5.68;;;;;;;;;;2081412;28;20018;-79
2023/03/11 01:45:31;;;;;;;10.27;6.20;;;;;;;;;;2076791;28;20155;-79
2023/03/11 01:46:53;;;;;;;8.25;6.00;;;;;;;;;;2081589;28;20391;-79
2023/03/11 01:48:13;;;;;;;6.88;5.90;;;;;;;;;;2068082;28;20026;-79
2023/03/11 01:49:34;;;;;;;8.25;5.97;;;;;;;;;;2070308;28;20038;-79
2023/03/11 01:50:53;;;;;;;9.30;6.03;;;;;;;;;;2077831;28;20041;-79
2023/03/11 01:52:13;;;;;;;8.80;5.68;;;;;;;;;;2078552;28;20395;-79
2023/03/11 01:53:32;;;;;;;9.60;5.38;;;;;;;;;;2078767;28;20030;-79
2023/03/11 01:54:51;;;;;;;7.78;5.25;;;;;;;;;;2079168;28;20033;-80
2023/03/11 01:56:11;;;;;;;8.15;5.65;;;;;;;;;;2079328;28;20034;-79
2023/03/11 01:57:30;;;;;;;7.50;5.50;;;;;;;;;;2080739;28;20033;-79
2023/03/11 01:58:52;;;;;;;6.90;5.75;;;;;;;;;;2079318;28;20042;-79
2023/03/11 02:00:12;;;;;;;9.15;5.95;;;;;;;;;;2071995;28;20029;-78
2023/03/11 02:01:31;;;;;;;11.40;5.95;;;;;;;;;;2071648;28;20033;-78
2023/03/11 02:02:51;;;;;;;8.55;5.60;;;;;;;;;;2077278;28;20101;-78
2023/03/11 02:04:11;;;;;;;8.27;6.13;;;;;;;;;;2078005;28;20716;-77
2023/03/11 02:05:30;;;;;;;10.13;5.65;;;;;;;;;;2073649;28;20034;-77
2023/03/11 02:06:49;;;;;;;8.25;6.00;;;;;;;;;;2075527;28;20116;-79
2023/03/11 02:08:08;;;;;;;7.57;5.88;;;;;;;;;;2077789;28;20033;-77
2023/03/11 02:09:27;;;;;;;8.68;5.45;;;;;;;;;;2080810;28;20021;-78
2023/03/11 02:10:46;;;;;;;9.68;6.03;;;;;;;;;;2080167;28;20025;-78
2023/03/11 02:12:06;;;;;;;8.13;5.45;;;;;;;;;;2072803;28;20662;-79
2023/03/11 02:13:25;;;;;;;5.43;4.80;;;;;;;;;;2078599;28;20034;-79
2023/03/11 02:14:45;;;;;;;8.00;5.22;;;;;;;;;;2072696;28;20033;-79
2023/03/11 02:16:05;;;;;;;7.13;5.60;;;;;;;;;;2066536;28;20026;-78
2023/03/11 02:17:24;;;;;;;8.63;5.80;;;;;;;;;;2075330;28;20025;-78
2023/03/11 02:18:43;;;;;;;7.15;5.45;;;;;;;;;;2072734;28;20038;-79
2023/03/11 02:20:17;;;;;;;8.30;5.95;;;;;;;;;;2072510;28;20116;-78
2023/03/11 02:21:36;;;;;;;7.10;4.97;;;;;;;;;;2071380;28;20025;-78
2023/03/11 02:22:56;;;;;;;6.30;5.10;;;;;;;;;;2078011;28;20481;-80
2023/03/11 02:24:30;;;;;;;8.85;5.30;;;;;;;;;;2078939;28;20025;-80
2023/03/11 02:25:49;;;;;;;;;;;;;;;;;;2078658;28;20030;-78
2023/03/11 02:27:10;;;;;;;9.50;5.50;;;;;;;;;;2080243;28;19905;-80
2023/03/11 02:28:30;;;;;;;8.30;5.75;;;;;;;;;;2080011;28;20017;-78
2023/03/11 02:29:50;;;;;;;6.75;5.55;;;;;;;;;;2075272;28;20053;-79
2023/03/11 02:31:09;;;;;;;7.22;5.72;;;;;;;;;;2079414;28;20038;-77
2023/03/11 02:32:29;;;;;;;6.55;5.53;;;;;;;;;;2082272;28;20060;-78
2023/03/11 02:33:49;;;;;;;8.77;5.30;;;;;;;;;;2080820;28;20053;-77
2023/03/11 02:35:09;;;;;;;7.78;5.57;;;;;;;;;;2077388;28;20025;-78
2023/03/11 02:36:38;;;;;;;8.02;5.53;;;;;;;;;;2077487;28;20025;-78
2023/03/11 02:37:58;;;;;;;6.60;5.38;;;;;;;;;;2077856;28;20010;-77
2023/03/11 02:39:28;;;;;;;8.15;5.55;;;;;;;;;;2086698;28;20033;-77
2023/03/11 02:40:55;;;;;;;6.65;5.03;;;;;;;;;;2090729;28;20033;-77
2023/03/11 02:42:22;;;;;;;8.38;5.20;;;;;;;;;;2090267;28;20619;-77
2023/03/11 02:43:43;;;;;;;5.45;4.75;;;;;;;;;;2089585;28;20017;-77
2023/03/11 02:45:08;;;;;;;6.65;5.28;;;;;;;;;;2089044;28;20085;-77
2023/03/11 02:46:27;;;;;;;5.95;4.32;;;;;;;;;;2090084;28;20030;-77
2023/03/11 02:47:47;;;;;;;7.07;4.95;;;;;;;;;;2087663;28;20026;-77
2023/03/11 02:49:06;;;;;;;6.55;4.50;;;;;;;;;;2081797;28;20079;-77
2023/03/11 02:50:26;;;;;;;6.85;5.03;;;;;;;;;;2081183;28;20034;-78
2023/03/11 02:51:45;;;;;;;5.57;4.70;;;;;;;;;;2082765;28;20030;-78
2023/03/11 02:53:05;;;;;;;7.80;4.63;;;;;;;;;;2083992;28;20034;-77
2023/03/11 02:54:24;;;;;;;6.13;4.20;;;;;;;;;;2083067;28;20037;-77
2023/03/11 02:55:43;;;;;;;7.35;4.95;;;;;;;;;;2077622;28;20025;-78
2023/03/11 02:57:02;;;;;;;6.32;4.25;;;;;;;;;;2074366;28;20025;-77
2023/03/11 02:58:21;;;;;;;6.30;4.75;;;;;;;;;;2082145;28;20673;-77
2023/03/11 02:59:40;;;;;;;7.50;4.70;;;;;;;;;;2081039;28;20022;-77
2023/03/11 03:00:59;;;;;;;5.13;4.57;;;;;;;;;;2081725;28;20390;-77
2023/03/11 03:02:18;;;;;;;5.97;4.82;;;;;;;;;;2075848;28;20038;-77
2023/03/11 03:03:37;;;;;;;5.90;4.30;;;;;;;;;;2082156;28;20049;-77
2023/03/11 03:04:56;;;;;;;5.53;4.43;;;;;;;;;;2082774;28;20407;-77
2023/03/11 03:06:15;;;;;;;5.25;4.63;;;;;;;;;;2083804;28;20438;-77
2023/03/11 03:07:34;;;;;;;7.32;5.30;;;;;;;;;;2072838;28;20029;-77
2023/03/11 03:08:54;;;;;;;5.88;4.57;;;;;;;;;;2078859;28;20109;-77
2023/03/11 03:10:13;;;;;;;6.97;5.32;;;;;;;;;;2071928;28;20505;-77
2023/03/11 03:11:32;;;;;;;5.78;4.30;;;;;;;;;;2077720;28;20525;-78
2023/03/11 03:12:50;;;;;;;7.30;4.70;;;;;;;;;;2079773;28;20483;-78
2023/03/11 03:14:09;;;;;;;6.05;4.43;;;;;;;;;;2081493;28;20038;-78
2023/03/11 03:15:29;;;;;;;4.65;4.15;;;;;;;;;;2080012;28;20045;-77
2023/03/11 03:16:48;;;;;;;6.40;4.30;;;;;;;;;;2076917;28;20018;-77
2023/03/11 03:18:07;;;;;;;8.35;4.55;;;;;;;;;;2077664;28;20034;-77
2023/03/11 03:19:26;;;;;;;5.97;4.47;;;;;;;;;;2080787;28;20033;-77
2023/03/11 03:20:45;;;;;;;6.20;4.93;;;;;;;;;;2079327;28;20022;-76
2023/03/11 03:22:04;;;;;;;5.65;4.35;;;;;;;;;;2080649;28;20522;-77
2023/03/11 03:23:23;;;;;;;7.32;4.45;;;;;;;;;;2074549;28;20033;-77
2023/03/11 03:24:42;;;;;;;4.55;4.13;;;;;;;;;;2081941;28;20025;-77
2023/03/11 03:26:01;;;;;;;8.25;4.22;;;;;;;;;;2078911;28;20112;-77
2023/03/11 03:27:20;;;;;;;5.30;3.95;;;;;;;;;;2073015;28;20069;-77
2023/03/11 03:28:39;;;;;;;7.22;4.38;;;;;;;;;;2077657;28;20055;-77
2023/03/11 03:29:57;;;;;;;5.63;4.90;;;;;;;;;;2081036;28;20021;-78
2023/03/11 03:31:16;;;;;;;4.90;4.07;;;;;;;;;;2075087;28;20026;-78
2023/03/11 03:32:35;;;;;;;4.10;3.70;;;;;;;;;;2076911;28;20460;-78
2023/03/11 03:33:54;;;;;;;5.03;4.35;;;;;;;;;;2081405;28;20030;-78
2023/03/11 03:35:13;;;;;;;5.05;3.80;;;;;;;;;;2082199;28;20507;-77
2023/03/11 03:36:32;;;;;;;4.78;3.30;;;;;;;;;;2079875;28;20050;-78
2023/03/11 03:37:51;;;;;;;5.13;3.65;;;;;;;;;;2082746;28;20022;-78
2023/03/11 03:39:10;;;;;;;4.03;3.40;;;;;;;;;;2071718;28;20454;-78
2023/03/11 03:40:29;;;;;;;5.47;3.40;;;;;;;;;;2071949;28;20186;-77
2023/03/11 03:41:48;;;;;;;4.07;3.58;;;;;;;;;;2079564;28;20104;-78
2023/03/11 03:43:07;;;;;;;5.53;3.78;;;;;;;;;;2076887;28;20033;-78
2023/03/11 03:44:27;;;;;;;7.32;4.10;;;;;;;;;;2071163;28;20018;-78
2023/03/11 03:45:54;;;;;;;5.50;3.60;;;;;;;;;;2079537;28;20386;-78
2023/03/11 03:47:12;;;;;;;4.43;3.80;;;;;;;;;;2081743;28;20029;-79
2023/03/11 03:48:31;;;;;;;4.15;3.70;;;;;;;;;;2080470;28;20029;-79
2023/03/11 03:49:50;;;;;;;5.53;4.03;;;;;;;;;;2079366;28;20033;-79
2023/03/11 03:51:10;;;;;;;5.35;3.50;;;;;;;;;;2071605;28;20030;-78
2023/03/11 03:52:29;;;;;;;4.32;3.92;;;;;;;;;;2078649;28;20033;-78
2023/03/11 03:53:48;;;;;;;4.82;3.80;;;;;;;;;;2081080;28;20049;-78
2023/03/11 03:55:08;;;;;;;4.82;4.03;;;;;;;;;;2076254;28;20033;-79
2023/03/11 03:56:26;;;;;;;4.97;3.72;;;;;;;;;;2072276;28;20022;-78
2023/03/11 03:57:45;;;;;;;4.93;3.80;;;;;;;;;;2073086;28;20022;-79
2023/03/11 03:59:04;;;;;;;5.63;3.90;;;;;;;;;;2074900;28;20518;-78
2023/03/11 04:00:23;;;;;;;4.78;3.08;;;;;;;;;;2079248;28;20037;-79
2023/03/11 04:01:42;;;;;;;5.50;3.75;;;;;;;;;;2074989;28;20034;-78
2023/03/11 04:03:01;;;;;;;4.55;3.33;;;;;;;;;;2078966;28;20033;-79
2023/03/11 04:04:21;;;;;;;5.25;3.75;;;;;;;;;;2079168;28;20021;-79
2023/03/11 04:05:39;;;;;;;3.72;3.30;;;;;;;;;;2074692;28;20025;-79
2023/03/11 04:06:58;;;;;;;4.75;3.83;;;;;;;;;;2070167;28;20049;-79
2023/03/11 04:08:18;;;;;;;4.03;3.63;;;;;;;;;;2078374;28;20037;-78
2023/03/11 04:09:38;;;;;;;3.53;3.22;;;;;;;;;;2080606;28;20029;-78
2023/03/11 04:10:57;;;;;;;3.53;3.08;;;;;;;;;;2078933;28;20041;-78
2023/03/11 04:12:16;;;;;;;4.47;3.15;;;;;;;;;;2080314;28;20562;-78
2023/03/11 04:13:35;;;;;;;3.78;3.05;;;;;;;;;;2080428;28;20038;-78
2023/03/11 04:14:55;;;;;;;4.00;3.60;;;;;;;;;;2076831;28;20026;-79
2023/03/11 04:16:16;;;;;;;3.97;3.38;;;;;;;;;;2081972;28;20017;-78
2023/03/11 04:17:35;;;;;;;3.58;3.20;;;;;;;;;;2081255;28;20049;-78
2023/03/11 04:18:54;;;;;;;7.00;3.28;;;;;;;;;;2078837;28;20482;-78
2023/03/11 04:20:13;;;;;;;9.10;3.47;;;;;;;;;;2074414;28;20105;-78
2023/03/11 04:21:33;;;;;;;3.20;2.80;;;;;;;;;;2078158;28;20553;-79
2023/03/11 04:22:52;;;;;;;7.50;4.05;;;;;;;;;;2071699;28;20463;-79
2023/03/11 04:24:11;;;;;;;3.97;3.58;;;;;;;;;;2078635;28;20038;-78
2023/03/11 04:25:30;;;;;;;4.43;3.92;;;;;;;;;;2073656;28;20526;-78
2023/03/11 04:26:49;;;;;;;5.00;3.60;;;;;;;;;;2074516;28;20495;-77
2023/03/11 04:28:08;;;;;;;3.58;3.28;;;;;;;;;;2080796;28;20504;-79
2023/03/11 04:29:27;;;;;;;5.15;3.70;;;;;;;;;;2079230;28;20034;-79
2023/03/11 04:30:46;;;;;;;4.40;4.00;;;;;;;;;;2078159;28;20064;-77
2023/03/11 04:32:06;;;;;;;6.35;4.03;;;;;;;;;;2081611;28;20041;-78
2023/03/11 04:33:24;;;;;;;4.35;3.33;;;;;;;;;;2080653;28;20691;-78
2023/03/11 04:34:43;;;;;;;6.25;2.97;;;;;;;;;;2073063;28;20089;-78
2023/03/11 04:36:06;;;;;;;4.38;3.28;;;;;;;;;;2066854;28;20034;-78
2023/03/11 04:37:28;;;;;;;4.15;2.90;;;;;;;;;;2071037;28;20027;-77
2023/03/11 04:38:47;;;;;;;3.40;3.10;;;;;;;;;;2077997;28;20021;-78
2023/03/11 04:40:07;;;;;;;3.88;2.95;;;;;;;;;;2073593;28;20477;-77
2023/03/11 04:41:26;;;;;;;3.63;3.33;;;;;;;;;;2076020;28;20494;-78
2023/03/11 04:42:46;;;;;;;3.58;2.90;;;;;;;;;;2076761;28;20021;-79
2023/03/11 04:44:05;;;;;;;2.80;2.60;;;;;;;;;;2075708;28;20022;-77
2023/03/11 04:45:24;;;;;;;4.75;3.20;;;;;;;;;;2076454;28;20034;-78
2023/03/11 04:46:43;;;;;;;4.18;2.85;;;;;;;;;;2073214;28;20022;-77
2023/03/11 04:48:02;;;;;;;3.30;3.00;;;;;;;;;;2074008;28;20034;-79
2023/03/11 04:49:21;;;;;;;5.72;3.53;;;;;;;;;;2073203;28;20025;-78
2023/03/11 04:50:40;;;;;;;6.40;3.35;;;;;;;;;;2071119;28;20029;-78
2023/03/11 04:51:59;;;;;;;3.90;3.30;;;;;;;;;;2077582;28;20121;-79
2023/03/11 04:53:18;;;;;;;5.05;3.20;;;;;;;;;;2075863;28;20025;-79
2023/03/11 04:54:37;;;;;;;4.13;3.33;;;;;;;;;;2077784;28;20034;-79
2023/03/11 04:55:56;;;;;;;5.15;3.15;;;;;;;;;;2080821;28;20029;-79
2023/03/11 04:57:15;;;;;;;3.53;3.22;;;;;;;;;;2075797;28;20026;-78
2023/03/11 04:58:34;;;;;;;3.58;3.28;;;;;;;;;;2077622;28;20022;-78
2023/03/11 04:59:52;;;;;;;3.40;3.10;;;;;;;;;;2076521;28;20026;-78
2023/03/11 05:01:11;;;;;;;3.42;2.90;;;;;;;;;;2079524;28;20033;-78
2023/03/11 05:02:30;;;;;;;3.35;3.05;;;;;;;;;;2080980;28;20112;-79
2023/03/11 05:03:49;;;;;;;3.83;3.45;;;;;;;;;;2074676;28;20764;-78
2023/03/11 05:05:09;;;;;;;3.75;2.90;;;;;;;;;;2078672;28;20386;-78
2023/03/11 05:06:28;;;;;;;3.30;3.00;;;;;;;;;;2079789;28;20474;-78
2023/03/11 05:07:47;;;;;;;5.28;3.13;;;;;;;;;;2079412;28;20577;-78
2023/03/11 05:09:06;;;;;;;3.22;2.95;;;;;;;;;;2077258;28;20108;-77
2023/03/11 05:10:25;;;;;;;4.65;3.35;;;;;;;;;;2081209;28;20042;-79
2023/03/11 05:11:44;;;;;;;3.85;3.25;;;;;;;;;;2079949;28;20112;-79
2023/03/11 05:13:03;;;;;;;3.70;2.88;;;;;;;;;;2080145;28;20454;-78
2023/03/11 05:14:22;;;;;;;4.47;3.30;;;;;;;;;;2074841;28;20033;-78
2023/03/11 05:15:41;;;;;;;7.22;3.60;;;;;;;;;;2075491;28;20021;-78
2023/03/11 05:17:00;;;;;;;3.33;2.97;;;;;;;;;;2072634;28;20026;-78
2023/03/11 05:18:18;;;;;;;3.15;2.78;;;;;;;;;;2069540;28;20022;-78
2023/03/11 05:19:37;;;;;;;7.03;3.35;;;;;;;;;;2074659;28;20042;-78
2023/03/11 05:20:56;;;;;;;7.18;3.00;;;;;;;;;;2076963;28;20033;-78
2023/03/11 05:22:16;;;;;;;4.38;2.88;;;;;;;;;;2075950;28;20029;-78
2023/03/11 05:23:35;;;;;;;3.35;3.08;;;;;;;;;;2077004;28;20029;-79
2023/03/11 05:24:54;;;;;;;3.17;2.90;;;;;;;;;;2075289;28;20153;-77
2023/03/11 05:26:13;;;;;;;3.17;2.88;;;;;;;;;;2073722;28;20030;-78
2023/03/11 05:27:32;;;;;;;5.32;3.25;;;;;;;;;;2078118;28;20037;-78
2023/03/11 05:28:51;;;;;;;5.72;3.35;;;;;;;;;;2081350;28;20030;-78
2023/03/11 05:30:10;;;;;;;3.95;3.15;;;;;;;;;;2080123;28;20183;-78
2023/03/11 05:31:29;;;;;;;3.75;3.30;;;;;;;;;;2079487;28;20411;-77
2023/03/11 05:32:48;;;;;;;3.08;2.85;;;;;;;;;;2074275;28;20101;-78
2023/03/11 05:34:07;;;;;;;3.53;3.22;;;;;;;;;;2071017;28;20038;-78
2023/03/11 05:35:25;;;;;;;5.28;3.33;;;;;;;;;;2071445;28;20022;-78
2023/03/11 05:36:44;;;;;;;4.93;3.10;;;;;;;;;;2078355;28;20030;-78
2023/03/11 05:38:03;;;;;;;3.92;3.10;;;;;;;;;;2080576;28;20034;-78
2023/03/11 05:39:22;;;;;;;4.18;2.75;;;;;;;;;;2077911;28;20025;-77
2023/03/11 05:40:41;;;;;;;4.95;2.90;;;;;;;;;;2079619;28;20025;-77
2023/03/11 05:42:00;;;;;;;4.47;3.22;;;;;;;;;;2077918;28;20026;-78
2023/03/11 05:43:19;;;;;;;4.65;2.90;;;;;;;;;;2070181;28;20041;-76
2023/03/11 05:44:38;;;;;;;6.22;2.90;;;;;;;;;;2074079;28;20030;-77
2023/03/11 05:45:57;;;;;;;5.32;2.85;;;;;;;;;;2078917;28;20033;-76
2023/03/11 05:47:17;;;;;;;3.85;2.88;;;;;;;;;;2079110;28;20471;-77
2023/03/11 05:48:35;;;;;;;4.97;3.00;;;;;;;;;;2079971;28;20037;-78
2023/03/11 05:49:54;;;;;;;4.80;3.67;;;;;;;;;;2079652;28;20053;-79
2023/03/11 05:51:14;;;;;;;5.00;2.90;;;;;;;;;;2076269;28;20034;-77
2023/03/11 05:52:33;;;;;;;4.05;3.10;;;;;;;;;;2077547;28;20037;-77
2023/03/11 05:53:52;;;;;;;3.85;3.00;;;;;;;;;;2080851;28;20030;-78
2023/03/11 05:55:11;;;;;;;3.97;3.30;;;;;;;;;;2079203;28;20065;-76
2023/03/11 05:56:30;;;;;;;5.07;3.60;;;;;;;;;;2082984;28;20037;-77
2023/03/11 05:57:50;;;;;;;2.88;2.67;;;;;;;;;;2079418;28;20490;-77
2023/03/11 05:59:10;;;;;;;5.22;3.55;;;;;;;;;;2080851;28;20073;-77
2023/03/11 06:00:29;;;;;;;4.25;3.20;;;;;;;;;;2071457;28;20524;-76
2023/03/11 06:01:48;;;;;;;4.15;2.80;;;;;;;;;;2075834;28;20622;-77
2023/03/11 06:03:07;;;;;;;5.22;2.85;;;;;;;;;;2073200;28;20399;-77
2023/03/11 06:04:26;;;;;;;5.43;3.38;;;;;;;;;;2078564;28;20033;-77
2023/03/11 06:05:49;;;;;;;3.00;2.70;;;;;;;;;;2079540;28;20035;-77
2023/03/11 06:07:08;;;;;;;4.00;3.20;;;;;;;;;;2078236;28;20483;-77
2023/03/11 06:08:27;;;;;;;14.25;3.90;;;;;;;;;;2074797;28;20026;-77
2023/03/11 06:09:45;;;;;;;3.75;2.90;;;;;;;;;;2076584;28;20030;-77
2023/03/11 06:11:08;;;;;;;3.65;3.00;;;;;;;;;;2079198;28;20029;-78
2023/03/11 06:12:27;;;;;;;6.75;2.80;;;;;;;;;;2081177;28;20041;-76
2023/03/11 06:13:46;;;;;;;2.95;2.70;;;;;;;;;;2075863;28;20022;-76
2023/03/11 06:15:06;;;;;;;3.88;2.85;;;;;;;;;;2078334;28;20033;-76
2023/03/11 06:16:25;;;;;;;2.88;2.67;;;;;;;;;;2073046;28;20037;-75
2023/03/11 06:17:44;;;;;;;3.88;2.90;;;;;;;;;;2061689;28;20508;-76
2023/03/11 06:19:03;;;;;;;3.05;2.70;;;;;;;;;;2063257;28;20499;-76
2023/03/11 06:20:21;;;;;;;2.97;2.67;;;;;;;;;;2076302;28;20041;-76
2023/03/11 06:21:40;;;;;;;2.88;2.67;;;;;;;;;;2078107;28;20092;-76
2023/03/11 06:22:59;;;;;;;2.67;2.35;;;;;;;;;;2071284;28;20030;-76
2023/03/11 06:24:18;;;;;;;3.20;2.90;;;;;;;;;;2078021;28;20057;-76
2023/03/11 06:25:37;;;;;;;3.03;2.55;;;;;;;;;;2080454;28;20448;-77
2023/03/11 06:26:56;;;;;;;2.92;2.65;;;;;;;;;;2078364;28;20470;-76
2023/03/11 06:28:15;;;;;;;3.92;2.92;;;;;;;;;;2074027;28;20539;-76
2023/03/11 06:29:34;;;;;;;3.17;2.72;;;;;;;;;;2074025;28;20112;-76
2023/03/11 06:30:55;;;;;;;4.75;2.95;;;;;;;;;;2071712;28;20196;-75
2023/03/11 06:32:14;;;;;;;3.25;3.00;;;;;;;;;;2074980;28;20062;-76
2023/03/11 06:33:33;;;;;;;2.75;2.55;;;;;;;;;;2079368;28;20029;-76
2023/03/11 06:34:52;;;;;;;4.32;2.40;;;;;;;;;;2080210;28;20053;-76
2023/03/11 06:36:13;;;;;;;5.95;2.90;;;;;;;;;;2079053;28;20115;-76
2023/03/11 06:37:34;;;;;;;4.78;3.17;;;;;;;;;;2078946;28;20026;-76
2023/03/11 06:38:53;;;;;;;5.43;2.55;;;;;;;;;;2077684;28;20026;-75
2023/03/11 06:40:12;;;;;;;5.72;3.20;;;;;;;;;;2072374;28;20034;-75
2023/03/11 06:41:33;;;;;;;4.93;3.00;;;;;;;;;;2075509;28;20017;-77
2023/03/11 06:42:52;;;;;;;3.00;2.58;;;;;;;;;;2075704;28;20026;-75
2023/03/11 06:44:11;;;;;;;3.78;2.78;;;;;;;;;;2075830;28;20022;-75
2023/03/11 06:45:30;;;;;;;3.67;2.80;;;;;;;;;;2079019;28;20057;-76
2023/03/11 06:46:49;;;;;;;4.55;3.35;;;;;;;;;;2079992;28;20072;-76
2023/03/11 06:48:08;;;;;;;2.70;2.45;;;;;;;;;;2079037;28;20041;-75
2023/03/11 06:49:28;;;;;;;3.95;3.30;;;;;;;;;;2080569;28;20041;-75
2023/03/11 06:50:54;;;;;;;3.42;2.70;;;;;;;;;;2080992;28;20045;-75
2023/03/11 06:52:13;;;;;;;3.13;2.80;;;;;;;;;;2069813;28;20034;-75
2023/03/11 06:53:32;;;;;;;4.28;2.80;;;;;;;;;;2074524;28;20116;-74
2023/03/11 06:54:51;;;;;;;3.60;3.30;;;;;;;;;;2078493;28;20433;-75
2023/03/11 06:56:11;;;;;;;3.53;3.08;;;;;;;;;;2071025;28;20038;-75
2023/03/11 06:57:31;;;;;;;3.83;2.90;;;;;;;;;;2077055;28;20021;-76
2023/03/11 06:58:50;;;;;;;4.03;2.95;;;;;;;;;;2082051;28;20489;-75
2023/03/11 07:00:12;;;;;;;3.95;2.80;;;;;;;;;;2082644;28;20022;-75
2023/03/11 07:01:31;;;;;;;3.65;2.83;;;;;;;;;;2081073;28;20038;-75
2023/03/11 07:02:50;;;;;;;4.68;3.00;;;;;;;;;;2086404;28;20025;-76
2023/03/11 07:04:09;;;;;;;3.58;3.28;;;;;;;;;;2088757;28;20029;-76
2023/03/11 07:05:28;;;;;;;3.25;2.90;;;;;;;;;;2086931;28;20045;-76
2023/03/11 07:06:47;;;;;;;3.80;2.85;;;;;;;;;;2088736;28;20025;-75
2023/03/11 07:08:06;;;;;;;4.90;2.65;;;;;;;;;;2087003;28;20034;-75
2023/03/11 07:09:27;;;;;;;3.88;2.88;;;;;;;;;;2086416;28;20030;-76
2023/03/11 07:10:47;;;;;;;4.38;2.55;;;;;;;;;;2087488;28;20029;-76
2023/03/11 07:12:06;;;;;;;5.28;2.35;;;;;;;;;;2086882;28;20018;-76
2023/03/11 07:13:25;;;;;;;3.25;2.70;;;;;;;;;;2074884;28;20030;-76
2023/03/11 07:14:43;;;;;;;2.90;2.70;;;;;;;;;;2072822;28;20030;-75
2023/03/11 07:16:07;;;;;;;3.60;2.47;;;;;;;;;;2078605;28;20030;-76
2023/03/11 07:17:26;;;;;;;3.13;2.35;;;;;;;;;;2073714;28;20026;-75
2023/03/11 07:18:45;;;;;;;3.90;2.67;;;;;;;;;;2078559;28;20021;-77
2023/03/11 07:20:04;;;;;;;4.47;2.40;;;;;;;;;;2080731;28;20034;-77
2023/03/11 07:21:24;;;;;;;3.17;2.88;;;;;;;;;;2078673;28;20068;-76
2023/03/11 07:22:43;;;;;;;3.28;2.97;;;;;;;;;;2079563;28;20026;-76
2023/03/11 07:24:02;;;;;;;5.00;3.08;;;;;;;;;;2080291;28;20033;-77
2023/03/11 07:25:21;;;;;;;4.30;2.67;;;;;;;;;;2079351;28;20030;-76
2023/03/11 07:26:40;;;;;;;3.45;3.15;;;;;;;;;;2080585;28;20033;-77
2023/03/11 07:28:00;;;;;;;5.65;3.00;;;;;;;;;;2081391;28;20037;-77
2023/03/11 07:29:19;;;;;;;4.30;2.85;;;;;;;;;;2077194;28;20034;-78
2023/03/11 07:30:38;;;;;;;6.47;4.38;;;;;;;;;;2071559;28;20046;-77
2023/03/11 07:31:57;;;;;;;4.90;3.03;;;;;;;;;;2078949;28;20414;-79
2023/03/11 07:33:15;;;;;;;25.20;13.30;;;;;;;;;;2072755;28;20042;-77
2023/03/11 07:34:34;;;;;;;5.25;2.95;;;;;;;;;;2069689;28;20065;-77
2023/03/11 07:35:54;;;;;;;5.13;2.65;;;;;;;;;;2070014;28;20061;-77
2023/03/11 07:37:12;;;;;;;5.00;3.00;;;;;;;;;;2070165;28;21036;-76
2023/03/11 07:38:31;;;;;;;3.28;2.78;;;;;;;;;;2079026;28;20482;-76
2023/03/11 07:39:50;;;;;;;3.83;2.50;;;;;;;;;;2081051;28;20033;-77
2023/03/11 07:41:10;;;;;;;4.20;2.90;;;;;;;;;;2078796;28;20030;-77
2023/03/11 07:42:29;;;;;;;2.88;2.60;;;;;;;;;;2073137;28;20340;-76
2023/03/11 07:43:48;;;;;;;5.72;2.95;;;;;;;;;;2076157;28;20037;-76
2023/03/11 07:45:07;;;;;;;3.55;3.20;;;;;;;;;;2070987;28;20045;-76
2023/03/11 07:46:28;;;;;;;3.85;2.80;;;;;;;;;;2071513;28;20387;-76
2023/03/11 07:47:46;;;;;;;5.20;2.63;;;;;;;;;;2077179;28;20037;-77
2023/03/11 07:49:06;;;;;;;6.40;3.25;;;;;;;;;;2079653;28;20029;-76
2023/03/11 07:50:25;;;;;;;3.55;3.00;;;;;;;;;;2071671;28;20026;-76
2023/03/11 07:51:44;;;;;;;2.85;2.55;;;;;;;;;;2067578;28;20491;-77
2023/03/11 07:53:03;;;;;;;4.35;3.38;;;;;;;;;;2075743;28;20072;-77
2023/03/11 07:54:22;;;;;;;4.75;3.00;;;;;;;;;;2079271;28;20037;-77
2023/03/11 07:55:42;;;;;;;3.80;2.53;;;;;;;;;;2076659;28;20037;-78